sensor_id;sensor_type;location;lat;lon;timestamp;temperature;humidity
26954;DHT22;14508;50.924;11.600;2022-09-24T00:01:37;9.30;99.90
26954;DHT22;14508;50.924;11.600;2022-09-24T00:04:06;9.30;99.90
26954;DHT22;14508;50.924;11.600;2022-09-24T00:06:35;9.30;99.90
26954;DHT22;14508;50.924;11.600;2022-09-24T00:09:02;9.30;99.90
26954;DHT22;14508;50.924;11.600;2022-09-24T00:11:30;9.30;99.90
26954;DHT22;14508;50.924;11.600;2022-09-24T00:13:57;9.30;99.90
26954;DHT22;14508;50.924;11.600;2022-09-24T00:16:27;9.30;99.90
26954;DHT22;14508;50.924;11.600;2022-09-24T00:18:54;9.30;99.90
26954;DHT22;14508;50.924;11.600;2022-09-24T00:21:23;9.20;99.90
26954;DHT22;14508;50.924;11.600;2022-09-24T00:23:51;9.20;99.90
26954;DHT22;14508;50.924;11.600;2022-09-24T00:26:19;9.10;99.90
26954;DHT22;14508;50.924;11.600;2022-09-24T00:29:06;9.10;99.90
26954;DHT22;14508;50.924;11.600;2022-09-24T00:31:33;9.00;99.90
26954;DHT22;14508;50.924;11.600;2022-09-24T00:34:00;9.00;99.90
26954;DHT22;14508;50.924;11.600;2022-09-24T00:36:27;9.00;99.90
26954;DHT22;14508;50.924;11.600;2022-09-24T00:38:55;8.90;99.90
26954;DHT22;14508;50.924;11.600;2022-09-24T00:41:24;8.90;99.90
26954;DHT22;14508;50.924;11.600;2022-09-24T00:43:51;8.80;99.90
26954;DHT22;14508;50.924;11.600;2022-09-24T00:46:22;8.80;99.90
26954;DHT22;14508;50.924;11.600;2022-09-24T00:48:52;8.70;99.90
26954;DHT22;14508;50.924;11.600;2022-09-24T00:51:21;8.70;99.90
26954;DHT22;14508;50.924;11.600;2022-09-24T00:53:51;8.70;99.90
26954;DHT22;14508;50.924;11.600;2022-09-24T00:56:20;8.70;99.90
26954;DHT22;14508;50.924;11.600;2022-09-24T00:58:53;8.70;99.90
26954;DHT22;14508;50.924;11.600;2022-09-24T01:01:23;8.70;99.90
26954;DHT22;14508;50.924;11.600;2022-09-24T01:03:52;8.70;99.90
26954;DHT22;14508;50.924;11.600;2022-09-24T01:06:20;8.70;99.90
26954;DHT22;14508;50.924;11.600;2022-09-24T01:08:47;8.70;99.90
26954;DHT22;14508;50.924;11.600;2022-09-24T01:11:23;8.60;99.90
26954;DHT22;14508;50.924;11.600;2022-09-24T01:17:01;8.60;99.90
26954;DHT22;14508;50.924;11.600;2022-09-24T01:19:57;8.60;99.90
26954;DHT22;14508;50.924;11.600;2022-09-24T01:22:41;8.50;99.90
26954;DHT22;14508;50.924;11.600;2022-09-24T01:25:18;8.50;99.90
26954;DHT22;14508;50.924;11.600;2022-09-24T01:28:00;8.50;99.90
26954;DHT22;14508;50.924;11.600;2022-09-24T01:30:33;8.50;99.90
26954;DHT22;14508;50.924;11.600;2022-09-24T01:33:04;8.40;99.90
26954;DHT22;14508;50.924;11.600;2022-09-24T01:35:36;8.40;99.90
26954;DHT22;14508;50.924;11.600;2022-09-24T01:38:06;8.40;99.90
26954;DHT22;14508;50.924;11.600;2022-09-24T01:40:34;8.40;99.90
26954;DHT22;14508;50.924;11.600;2022-09-24T01:43:04;8.40;99.90
26954;DHT22;14508;50.924;11.600;2022-09-24T01:45:34;8.30;99.90
26954;DHT22;14508;50.924;11.600;2022-09-24T01:48:03;8.30;99.90
26954;DHT22;14508;50.924;11.600;2022-09-24T01:50:33;8.30;99.90
26954;DHT22;14508;50.924;11.600;2022-09-24T01:53:07;8.30;99.90
26954;DHT22;14508;50.924;11.600;2022-09-24T01:55:41;8.30;99.90
26954;DHT22;14508;50.924;11.600;2022-09-24T01:58:13;8.20;99.90
26954;DHT22;14508;50.924;11.600;2022-09-24T02:00:44;8.20;99.90
26954;DHT22;14508;50.924;11.600;2022-09-24T02:03:14;8.20;99.90
26954;DHT22;14508;50.924;11.600;2022-09-24T02:05:46;8.20;99.90
26954;DHT22;14508;50.924;11.600;2022-09-24T02:08:18;8.20;99.90
26954;DHT22;14508;50.924;11.600;2022-09-24T02:10:48;8.20;99.90
26954;DHT22;14508;50.924;11.600;2022-09-24T02:13:18;8.10;99.90
26954;DHT22;14508;50.924;11.600;2022-09-24T02:15:52;8.10;99.90
26954;DHT22;14508;50.924;11.600;2022-09-24T02:18:22;8.10;99.90
26954;DHT22;14508;50.924;11.600;2022-09-24T02:20:51;8.10;99.90
26954;DHT22;14508;50.924;11.600;2022-09-24T02:23:19;8.10;99.90
26954;DHT22;14508;50.924;11.600;2022-09-24T02:25:49;8.00;99.90
26954;DHT22;14508;50.924;11.600;2022-09-24T02:28:18;8.00;99.90
26954;DHT22;14508;50.924;11.600;2022-09-24T02:30:49;7.90;99.90
26954;DHT22;14508;50.924;11.600;2022-09-24T02:33:19;7.90;99.90
26954;DHT22;14508;50.924;11.600;2022-09-24T02:36:04;7.90;99.90
26954;DHT22;14508;50.924;11.600;2022-09-24T02:38:31;7.90;99.90
26954;DHT22;14508;50.924;11.600;2022-09-24T02:40:58;7.90;99.90
26954;DHT22;14508;50.924;11.600;2022-09-24T02:43:24;7.90;99.90
26954;DHT22;14508;50.924;11.600;2022-09-24T02:45:51;7.80;99.90
26954;DHT22;14508;50.924;11.600;2022-09-24T02:48:19;7.80;99.90
26954;DHT22;14508;50.924;11.600;2022-09-24T02:50:45;7.80;99.90
26954;DHT22;14508;50.924;11.600;2022-09-24T02:53:12;7.80;99.90
26954;DHT22;14508;50.924;11.600;2022-09-24T02:55:39;7.80;99.90
26954;DHT22;14508;50.924;11.600;2022-09-24T02:58:05;7.80;99.90
26954;DHT22;14508;50.924;11.600;2022-09-24T03:00:32;7.80;99.90
26954;DHT22;14508;50.924;11.600;2022-09-24T03:02:59;7.70;99.90
26954;DHT22;14508;50.924;11.600;2022-09-24T03:05:27;7.70;99.90
26954;DHT22;14508;50.924;11.600;2022-09-24T03:07:53;7.70;99.90
26954;DHT22;14508;50.924;11.600;2022-09-24T03:10:20;7.70;99.90
26954;DHT22;14508;50.924;11.600;2022-09-24T03:12:47;7.60;99.90
26954;DHT22;14508;50.924;11.600;2022-09-24T03:15:14;7.60;99.90
26954;DHT22;14508;50.924;11.600;2022-09-24T03:17:40;7.60;99.90
26954;DHT22;14508;50.924;11.600;2022-09-24T03:20:07;7.60;99.90
26954;DHT22;14508;50.924;11.600;2022-09-24T03:22:35;7.60;99.90
26954;DHT22;14508;50.924;11.600;2022-09-24T03:25:02;7.60;99.90
26954;DHT22;14508;50.924;11.600;2022-09-24T03:27:29;7.60;99.90
26954;DHT22;14508;50.924;11.600;2022-09-24T03:29:55;7.60;99.90
26954;DHT22;14508;50.924;11.600;2022-09-24T03:32:40;7.60;99.90
26954;DHT22;14508;50.924;11.600;2022-09-24T03:35:07;7.70;99.90
26954;DHT22;14508;50.924;11.600;2022-09-24T03:37:37;7.70;99.90
26954;DHT22;14508;50.924;11.600;2022-09-24T03:40:06;7.70;99.90
26954;DHT22;14508;50.924;11.600;2022-09-24T03:42:33;7.70;99.90
26954;DHT22;14508;50.924;11.600;2022-09-24T03:45:00;7.70;99.90
26954;DHT22;14508;50.924;11.600;2022-09-24T03:47:26;7.70;99.90
26954;DHT22;14508;50.924;11.600;2022-09-24T03:49:55;7.70;99.90
26954;DHT22;14508;50.924;11.600;2022-09-24T03:52:23;7.70;99.90
26954;DHT22;14508;50.924;11.600;2022-09-24T03:54:51;7.80;99.90
26954;DHT22;14508;50.924;11.600;2022-09-24T03:57:18;7.70;99.90
26954;DHT22;14508;50.924;11.600;2022-09-24T03:59:45;7.70;99.90
26954;DHT22;14508;50.924;11.600;2022-09-24T04:02:12;7.80;99.90
26954;DHT22;14508;50.924;11.600;2022-09-24T04:04:39;7.70;99.90
26954;DHT22;14508;50.924;11.600;2022-09-24T04:07:05;7.80;99.90
26954;DHT22;14508;50.924;11.600;2022-09-24T04:09:32;7.80;99.90
26954;DHT22;14508;50.924;11.600;2022-09-24T04:12:00;7.80;99.90
26954;DHT22;14508;50.924;11.600;2022-09-24T04:14:27;7.80;99.90
26954;DHT22;14508;50.924;11.600;2022-09-24T04:16:54;7.80;99.90
26954;DHT22;14508;50.924;11.600;2022-09-24T04:19:20;7.90;99.90
26954;DHT22;14508;50.924;11.600;2022-09-24T04:21:47;7.80;99.90
26954;DHT22;14508;50.924;11.600;2022-09-24T04:24:14;7.80;99.90
26954;DHT22;14508;50.924;11.600;2022-09-24T04:26:41;7.90;99.90
26954;DHT22;14508;50.924;11.600;2022-09-24T04:29:09;7.80;99.90
26954;DHT22;14508;50.924;11.600;2022-09-24T04:31:35;7.80;99.90
26954;DHT22;14508;50.924;11.600;2022-09-24T04:34:02;7.80;99.90
26954;DHT22;14508;50.924;11.600;2022-09-24T04:36:29;7.80;99.90
26954;DHT22;14508;50.924;11.600;2022-09-24T04:38:56;7.80;99.90
26954;DHT22;14508;50.924;11.600;2022-09-24T04:41:22;7.80;99.90
26954;DHT22;14508;50.924;11.600;2022-09-24T04:43:49;7.80;99.90
26954;DHT22;14508;50.924;11.600;2022-09-24T04:46:17;7.80;99.90
26954;DHT22;14508;50.924;11.600;2022-09-24T04:48:44;7.80;99.90
26954;DHT22;14508;50.924;11.600;2022-09-24T04:51:10;7.80;99.90
26954;DHT22;14508;50.924;11.600;2022-09-24T04:53:37;7.80;99.90
26954;DHT22;14508;50.924;11.600;2022-09-24T04:56:04;7.80;99.90
26954;DHT22;14508;50.924;11.600;2022-09-24T04:58:35;7.80;99.90
26954;DHT22;14508;50.924;11.600;2022-09-24T05:01:02;7.80;99.90
26954;DHT22;14508;50.924;11.600;2022-09-24T05:03:30;7.80;99.90
26954;DHT22;14508;50.924;11.600;2022-09-24T05:05:57;7.80;99.90
26954;DHT22;14508;50.924;11.600;2022-09-24T05:08:24;7.80;99.90
26954;DHT22;14508;50.924;11.600;2022-09-24T05:10:50;7.80;99.90
26954;DHT22;14508;50.924;11.600;2022-09-24T05:13:18;7.80;99.90
26954;DHT22;14508;50.924;11.600;2022-09-24T05:15:45;7.90;99.90
26954;DHT22;14508;50.924;11.600;2022-09-24T05:18:12;7.90;99.90
26954;DHT22;14508;50.924;11.600;2022-09-24T05:20:40;7.80;99.90
26954;DHT22;14508;50.924;11.600;2022-09-24T05:23:07;7.80;99.90
26954;DHT22;14508;50.924;11.600;2022-09-24T05:25:33;7.80;99.90
26954;DHT22;14508;50.924;11.600;2022-09-24T05:28:21;7.90;99.90
26954;DHT22;14508;50.924;11.600;2022-09-24T05:30:47;7.90;99.90
26954;DHT22;14508;50.924;11.600;2022-09-24T05:33:14;8.00;99.90
26954;DHT22;14508;50.924;11.600;2022-09-24T05:35:42;8.00;99.90
26954;DHT22;14508;50.924;11.600;2022-09-24T05:38:08;8.00;99.90
26954;DHT22;14508;50.924;11.600;2022-09-24T05:40:35;8.10;99.90
26954;DHT22;14508;50.924;11.600;2022-09-24T05:43:15;8.10;99.90
26954;DHT22;14508;50.924;11.600;2022-09-24T05:45:43;8.20;99.90
26954;DHT22;14508;50.924;11.600;2022-09-24T05:48:10;8.20;99.90
26954;DHT22;14508;50.924;11.600;2022-09-24T05:50:37;8.30;99.90
26954;DHT22;14508;50.924;11.600;2022-09-24T05:53:05;8.30;99.90
26954;DHT22;14508;50.924;11.600;2022-09-24T05:55:31;8.30;99.90
26954;DHT22;14508;50.924;11.600;2022-09-24T05:58:02;8.40;99.90
26954;DHT22;14508;50.924;11.600;2022-09-24T06:00:29;8.40;99.90
26954;DHT22;14508;50.924;11.600;2022-09-24T06:03:00;8.50;99.90
26954;DHT22;14508;50.924;11.600;2022-09-24T06:05:27;8.50;99.90
26954;DHT22;14508;50.924;11.600;2022-09-24T06:07:54;8.50;99.90
26954;DHT22;14508;50.924;11.600;2022-09-24T06:10:22;8.60;99.90
26954;DHT22;14508;50.924;11.600;2022-09-24T06:12:51;8.60;99.90
26954;DHT22;14508;50.924;11.600;2022-09-24T06:15:18;8.70;99.90
26954;DHT22;14508;50.924;11.600;2022-09-24T06:17:45;8.70;99.90
26954;DHT22;14508;50.924;11.600;2022-09-24T06:20:11;8.80;99.90
26954;DHT22;14508;50.924;11.600;2022-09-24T06:22:39;8.80;99.90
26954;DHT22;14508;50.924;11.600;2022-09-24T06:25:07;8.90;99.90
26954;DHT22;14508;50.924;11.600;2022-09-24T06:27:35;9.00;99.90
26954;DHT22;14508;50.924;11.600;2022-09-24T06:30:02;9.00;99.90
26954;DHT22;14508;50.924;11.600;2022-09-24T06:32:29;9.10;99.90
26954;DHT22;14508;50.924;11.600;2022-09-24T06:34:56;9.10;99.90
26954;DHT22;14508;50.924;11.600;2022-09-24T06:37:22;9.20;99.90
26954;DHT22;14508;50.924;11.600;2022-09-24T06:39:49;9.30;99.90
26954;DHT22;14508;50.924;11.600;2022-09-24T06:42:16;9.40;99.90
26954;DHT22;14508;50.924;11.600;2022-09-24T06:44:44;9.50;99.90
26954;DHT22;14508;50.924;11.600;2022-09-24T06:47:11;9.60;99.90
26954;DHT22;14508;50.924;11.600;2022-09-24T06:49:37;9.70;99.90
26954;DHT22;14508;50.924;11.600;2022-09-24T06:52:05;9.80;99.90
26954;DHT22;14508;50.924;11.600;2022-09-24T06:54:32;9.90;99.90
26954;DHT22;14508;50.924;11.600;2022-09-24T06:56:59;9.90;99.90
26954;DHT22;14508;50.924;11.600;2022-09-24T06:59:26;9.90;99.90
26954;DHT22;14508;50.924;11.600;2022-09-24T07:01:54;9.90;99.90
26954;DHT22;14508;50.924;11.600;2022-09-24T07:04:21;10.00;99.90
26954;DHT22;14508;50.924;11.600;2022-09-24T07:06:47;10.00;99.90
26954;DHT22;14508;50.924;11.600;2022-09-24T07:09:34;10.10;99.90
26954;DHT22;14508;50.924;11.600;2022-09-24T07:12:02;10.20;99.90
26954;DHT22;14508;50.924;11.600;2022-09-24T07:14:30;10.20;99.90
26954;DHT22;14508;50.924;11.600;2022-09-24T07:16:58;10.30;99.90
26954;DHT22;14508;50.924;11.600;2022-09-24T07:19:25;10.30;99.90
26954;DHT22;14508;50.924;11.600;2022-09-24T07:21:51;10.30;99.90
26954;DHT22;14508;50.924;11.600;2022-09-24T07:24:18;10.40;99.90
26954;DHT22;14508;50.924;11.600;2022-09-24T07:26:44;10.30;99.90
26954;DHT22;14508;50.924;11.600;2022-09-24T07:29:11;10.30;99.90
26954;DHT22;14508;50.924;11.600;2022-09-24T07:31:38;10.30;99.90
26954;DHT22;14508;50.924;11.600;2022-09-24T07:34:07;10.30;99.90
26954;DHT22;14508;50.924;11.600;2022-09-24T07:36:34;10.20;99.90
26954;DHT22;14508;50.924;11.600;2022-09-24T07:39:00;10.20;99.90
26954;DHT22;14508;50.924;11.600;2022-09-24T07:41:28;10.30;99.90
26954;DHT22;14508;50.924;11.600;2022-09-24T07:43:55;10.30;99.90
26954;DHT22;14508;50.924;11.600;2022-09-24T07:46:22;10.50;99.90
26954;DHT22;14508;50.924;11.600;2022-09-24T07:48:51;10.70;99.90
26954;DHT22;14508;50.924;11.600;2022-09-24T07:51:20;10.90;99.90
26954;DHT22;14508;50.924;11.600;2022-09-24T07:53:46;11.10;99.90
26954;DHT22;14508;50.924;11.600;2022-09-24T07:56:13;11.30;99.90
26954;DHT22;14508;50.924;11.600;2022-09-24T07:58:40;11.40;99.90
26954;DHT22;14508;50.924;11.600;2022-09-24T08:01:07;11.50;99.90
26954;DHT22;14508;50.924;11.600;2022-09-24T08:03:33;11.60;99.90
26954;DHT22;14508;50.924;11.600;2022-09-24T08:06:03;11.70;99.90
26954;DHT22;14508;50.924;11.600;2022-09-24T08:08:31;11.80;99.90
26954;DHT22;14508;50.924;11.600;2022-09-24T08:11:02;12.00;99.90
26954;DHT22;14508;50.924;11.600;2022-09-24T08:13:29;12.20;99.90
26954;DHT22;14508;50.924;11.600;2022-09-24T08:15:56;12.40;99.90
26954;DHT22;14508;50.924;11.600;2022-09-24T08:18:24;12.60;99.90
26954;DHT22;14508;50.924;11.600;2022-09-24T08:20:51;12.80;99.90
26954;DHT22;14508;50.924;11.600;2022-09-24T08:23:17;13.00;99.90
26954;DHT22;14508;50.924;11.600;2022-09-24T08:25:46;13.20;99.90
26954;DHT22;14508;50.924;11.600;2022-09-24T08:28:13;13.40;99.90
26954;DHT22;14508;50.924;11.600;2022-09-24T08:30:42;13.60;99.90
26954;DHT22;14508;50.924;11.600;2022-09-24T08:33:09;13.60;99.90
26954;DHT22;14508;50.924;11.600;2022-09-24T08:35:36;13.60;99.90
26954;DHT22;14508;50.924;11.600;2022-09-24T08:38:05;13.60;99.90
26954;DHT22;14508;50.924;11.600;2022-09-24T08:40:36;13.60;99.90
26954;DHT22;14508;50.924;11.600;2022-09-24T08:43:14;13.60;99.90
26954;DHT22;14508;50.924;11.600;2022-09-24T08:45:47;13.60;99.90
26954;DHT22;14508;50.924;11.600;2022-09-24T08:48:34;13.60;99.90
26954;DHT22;14508;50.924;11.600;2022-09-24T08:51:06;13.60;99.90
26954;DHT22;14508;50.924;11.600;2022-09-24T08:53:42;13.60;99.90
26954;DHT22;14508;50.924;11.600;2022-09-24T08:56:11;13.60;99.90
26954;DHT22;14508;50.924;11.600;2022-09-24T08:58:43;13.70;99.90
26954;DHT22;14508;50.924;11.600;2022-09-24T09:01:19;13.80;99.90
26954;DHT22;14508;50.924;11.600;2022-09-24T09:03:52;14.00;99.90
26954;DHT22;14508;50.924;11.600;2022-09-24T09:06:42;14.10;99.90
26954;DHT22;14508;50.924;11.600;2022-09-24T09:09:15;14.20;99.90
26954;DHT22;14508;50.924;11.600;2022-09-24T09:11:45;14.40;99.90
26954;DHT22;14508;50.924;11.600;2022-09-24T09:14:17;14.50;99.90
26954;DHT22;14508;50.924;11.600;2022-09-24T09:16:48;14.70;99.90
26954;DHT22;14508;50.924;11.600;2022-09-24T09:19:18;14.80;99.90
26954;DHT22;14508;50.924;11.600;2022-09-24T09:21:50;14.90;99.90
26954;DHT22;14508;50.924;11.600;2022-09-24T09:24:20;15.10;99.90
26954;DHT22;14508;50.924;11.600;2022-09-24T09:26:50;15.10;99.90
26954;DHT22;14508;50.924;11.600;2022-09-24T09:29:21;15.30;99.90
26954;DHT22;14508;50.924;11.600;2022-09-24T09:31:58;15.40;99.90
26954;DHT22;14508;50.924;11.600;2022-09-24T09:34:46;15.60;99.90
26954;DHT22;14508;50.924;11.600;2022-09-24T09:37:24;15.70;99.90
26954;DHT22;14508;50.924;11.600;2022-09-24T09:39:56;15.90;99.10
26954;DHT22;14508;50.924;11.600;2022-09-24T09:42:29;16.00;97.90
26954;DHT22;14508;50.924;11.600;2022-09-24T09:45:01;16.10;97.20
26954;DHT22;14508;50.924;11.600;2022-09-24T09:47:36;16.20;96.60
26954;DHT22;14508;50.924;11.600;2022-09-24T09:50:11;16.30;95.90
26954;DHT22;14508;50.924;11.600;2022-09-24T09:52:40;16.40;95.50
26954;DHT22;14508;50.924;11.600;2022-09-24T09:55:07;16.60;94.20
26954;DHT22;14508;50.924;11.600;2022-09-24T09:57:45;16.80;93.40
26954;DHT22;14508;50.924;11.600;2022-09-24T10:00:24;17.00;92.00
26954;DHT22;14508;50.924;11.600;2022-09-24T10:02:52;17.20;90.80
26954;DHT22;14508;50.924;11.600;2022-09-24T10:05:20;17.40;88.80
26954;DHT22;14508;50.924;11.600;2022-09-24T10:07:47;17.50;86.70
26954;DHT22;14508;50.924;11.600;2022-09-24T10:10:18;17.70;83.40
26954;DHT22;14508;50.924;11.600;2022-09-24T10:12:45;17.80;81.30
26954;DHT22;14508;50.924;11.600;2022-09-24T10:15:16;18.00;78.30
26954;DHT22;14508;50.924;11.600;2022-09-24T10:17:46;18.10;75.70
26954;DHT22;14508;50.924;11.600;2022-09-24T10:20:17;18.30;71.80
26954;DHT22;14508;50.924;11.600;2022-09-24T10:22:47;18.30;72.00
26954;DHT22;14508;50.924;11.600;2022-09-24T10:25:18;18.40;72.20
26954;DHT22;14508;50.924;11.600;2022-09-24T10:27:46;18.50;71.00
26954;DHT22;14508;50.924;11.600;2022-09-24T10:30:14;18.60;70.00
26954;DHT22;14508;50.924;11.600;2022-09-24T10:33:01;18.70;69.10
26954;DHT22;14508;50.924;11.600;2022-09-24T10:35:30;18.90;67.70
26954;DHT22;14508;50.924;11.600;2022-09-24T10:38:00;19.00;67.20
26954;DHT22;14508;50.924;11.600;2022-09-24T10:40:29;19.10;66.30
26954;DHT22;14508;50.924;11.600;2022-09-24T10:42:58;19.20;64.10
26954;DHT22;14508;50.924;11.600;2022-09-24T10:45:35;19.20;61.80
26954;DHT22;14508;50.924;11.600;2022-09-24T10:48:14;19.30;60.00
26954;DHT22;14508;50.924;11.600;2022-09-24T10:50:50;19.30;59.40
26954;DHT22;14508;50.924;11.600;2022-09-24T10:53:29;19.30;59.60
26954;DHT22;14508;50.924;11.600;2022-09-24T10:56:06;19.40;59.20
26954;DHT22;14508;50.924;11.600;2022-09-24T10:59:02;19.30;57.90
26954;DHT22;14508;50.924;11.600;2022-09-24T11:01:41;19.10;57.50
26954;DHT22;14508;50.924;11.600;2022-09-24T11:04:38;18.90;57.20
26954;DHT22;14508;50.924;11.600;2022-09-24T11:07:35;18.80;57.20
26954;DHT22;14508;50.924;11.600;2022-09-24T11:10:07;18.90;57.40
26954;DHT22;14508;50.924;11.600;2022-09-24T11:12:44;19.00;57.40
26954;DHT22;14508;50.924;11.600;2022-09-24T11:15:23;19.10;56.80
26954;DHT22;14508;50.924;11.600;2022-09-24T11:18:01;19.00;56.70
26954;DHT22;14508;50.924;11.600;2022-09-24T11:20:35;18.90;57.10
26954;DHT22;14508;50.924;11.600;2022-09-24T11:23:25;18.80;57.50
26954;DHT22;14508;50.924;11.600;2022-09-24T11:26:01;18.80;57.90
26954;DHT22;14508;50.924;11.600;2022-09-24T11:29:00;18.80;57.70
26954;DHT22;14508;50.924;11.600;2022-09-24T11:31:33;19.00;57.50
26954;DHT22;14508;50.924;11.600;2022-09-24T11:34:09;19.20;57.40
26954;DHT22;14508;50.924;11.600;2022-09-24T11:36:53;19.20;57.10
26954;DHT22;14508;50.924;11.600;2022-09-24T11:39:33;19.30;57.00
26954;DHT22;14508;50.924;11.600;2022-09-24T11:42:09;19.30;57.10
26954;DHT22;14508;50.924;11.600;2022-09-24T11:45:04;19.50;57.10
26954;DHT22;14508;50.924;11.600;2022-09-24T11:47:47;19.60;56.80
26954;DHT22;14508;50.924;11.600;2022-09-24T11:50:25;19.60;55.90
26954;DHT22;14508;50.924;11.600;2022-09-24T11:53:01;19.70;55.90
26954;DHT22;14508;50.924;11.600;2022-09-24T11:55:32;19.70;55.80
26954;DHT22;14508;50.924;11.600;2022-09-24T11:58:08;19.70;55.30
26954;DHT22;14508;50.924;11.600;2022-09-24T12:00:41;19.70;55.60
26954;DHT22;14508;50.924;11.600;2022-09-24T12:03:15;19.80;54.90
26954;DHT22;14508;50.924;11.600;2022-09-24T12:05:44;19.80;54.60
26954;DHT22;14508;50.924;11.600;2022-09-24T12:08:17;19.80;54.80
26954;DHT22;14508;50.924;11.600;2022-09-24T12:10:51;19.80;55.10
26954;DHT22;14508;50.924;11.600;2022-09-24T12:13:22;19.80;54.80
26954;DHT22;14508;50.924;11.600;2022-09-24T12:15:55;19.80;54.70
26954;DHT22;14508;50.924;11.600;2022-09-24T12:18:25;19.90;54.60
26954;DHT22;14508;50.924;11.600;2022-09-24T12:20:55;19.90;54.70
26954;DHT22;14508;50.924;11.600;2022-09-24T12:23:29;20.00;53.90
26954;DHT22;14508;50.924;11.600;2022-09-24T12:25:59;20.10;53.40
26954;DHT22;14508;50.924;11.600;2022-09-24T12:28:34;20.20;53.10
26954;DHT22;14508;50.924;11.600;2022-09-24T12:31:28;20.30;53.10
26954;DHT22;14508;50.924;11.600;2022-09-24T12:34:18;20.50;52.40
26954;DHT22;14508;50.924;11.600;2022-09-24T12:36:56;20.50;51.90
26954;DHT22;14508;50.924;11.600;2022-09-24T12:39:29;20.60;51.90
26954;DHT22;14508;50.924;11.600;2022-09-24T12:41:59;20.60;51.30
26954;DHT22;14508;50.924;11.600;2022-09-24T12:44:33;20.60;51.50
26954;DHT22;14508;50.924;11.600;2022-09-24T12:47:02;20.70;51.60
26954;DHT22;14508;50.924;11.600;2022-09-24T12:49:32;20.70;51.60
26954;DHT22;14508;50.924;11.600;2022-09-24T12:52:01;20.90;51.70
26954;DHT22;14508;50.924;11.600;2022-09-24T12:54:31;21.00;51.60
26954;DHT22;14508;50.924;11.600;2022-09-24T12:57:07;21.00;51.40
26954;DHT22;14508;50.924;11.600;2022-09-24T12:59:46;21.10;51.30
26954;DHT22;14508;50.924;11.600;2022-09-24T13:02:15;21.20;51.40
26954;DHT22;14508;50.924;11.600;2022-09-24T13:04:44;21.10;51.00
26954;DHT22;14508;50.924;11.600;2022-09-24T13:07:33;21.10;50.90
26954;DHT22;14508;50.924;11.600;2022-09-24T13:10:21;21.00;50.90
26954;DHT22;14508;50.924;11.600;2022-09-24T13:12:48;20.90;50.50
26954;DHT22;14508;50.924;11.600;2022-09-24T13:15:24;20.80;50.40
26954;DHT22;14508;50.924;11.600;2022-09-24T13:18:00;20.80;50.70
26954;DHT22;14508;50.924;11.600;2022-09-24T13:20:29;20.80;50.30
26954;DHT22;14508;50.924;11.600;2022-09-24T13:22:57;20.70;50.20
26954;DHT22;14508;50.924;11.600;2022-09-24T13:25:26;20.50;49.90
26954;DHT22;14508;50.924;11.600;2022-09-24T13:27:58;20.40;50.50
26954;DHT22;14508;50.924;11.600;2022-09-24T13:30:35;20.30;51.30
26954;DHT22;14508;50.924;11.600;2022-09-24T13:33:12;20.30;51.60
26954;DHT22;14508;50.924;11.600;2022-09-24T13:35:46;20.30;51.30
26954;DHT22;14508;50.924;11.600;2022-09-24T13:38:19;20.40;51.10
26954;DHT22;14508;50.924;11.600;2022-09-24T13:40:54;20.50;50.80
26954;DHT22;14508;50.924;11.600;2022-09-24T13:43:34;20.70;50.50
26954;DHT22;14508;50.924;11.600;2022-09-24T13:46:05;20.90;50.00
26954;DHT22;14508;50.924;11.600;2022-09-24T13:48:35;21.00;49.90
26954;DHT22;14508;50.924;11.600;2022-09-24T13:51:03;21.10;49.80
26954;DHT22;14508;50.924;11.600;2022-09-24T13:53:37;21.10;49.60
26954;DHT22;14508;50.924;11.600;2022-09-24T13:56:11;21.00;49.50
26954;DHT22;14508;50.924;11.600;2022-09-24T13:58:38;21.00;49.90
26954;DHT22;14508;50.924;11.600;2022-09-24T14:01:11;21.00;50.20
26954;DHT22;14508;50.924;11.600;2022-09-24T14:03:38;21.00;49.70
26954;DHT22;14508;50.924;11.600;2022-09-24T14:06:10;21.00;50.10
26954;DHT22;14508;50.924;11.600;2022-09-24T14:08:40;21.00;50.30
26954;DHT22;14508;50.924;11.600;2022-09-24T14:11:15;20.90;50.80
26954;DHT22;14508;50.924;11.600;2022-09-24T14:13:43;20.80;50.50
26954;DHT22;14508;50.924;11.600;2022-09-24T14:16:13;20.60;49.70
26954;DHT22;14508;50.924;11.600;2022-09-24T14:18:41;20.40;50.30
26954;DHT22;14508;50.924;11.600;2022-09-24T14:21:10;20.30;50.60
26954;DHT22;14508;50.924;11.600;2022-09-24T14:23:41;20.30;51.20
26954;DHT22;14508;50.924;11.600;2022-09-24T14:26:20;20.30;51.40
26954;DHT22;14508;50.924;11.600;2022-09-24T14:28:51;20.50;51.50
26954;DHT22;14508;50.924;11.600;2022-09-24T14:31:19;20.60;51.40
26954;DHT22;14508;50.924;11.600;2022-09-24T14:33:51;20.60;50.60
26954;DHT22;14508;50.924;11.600;2022-09-24T14:36:18;20.70;50.80
26954;DHT22;14508;50.924;11.600;2022-09-24T14:38:56;20.60;50.90
26954;DHT22;14508;50.924;11.600;2022-09-24T14:41:28;20.70;51.30
26954;DHT22;14508;50.924;11.600;2022-09-24T14:44:00;20.70;51.40
26954;DHT22;14508;50.924;11.600;2022-09-24T14:46:30;20.70;51.20
26954;DHT22;14508;50.924;11.600;2022-09-24T14:49:05;20.60;51.00
26954;DHT22;14508;50.924;11.600;2022-09-24T14:51:32;20.60;50.90
26954;DHT22;14508;50.924;11.600;2022-09-24T14:54:01;20.70;51.10
26954;DHT22;14508;50.924;11.600;2022-09-24T14:56:31;20.80;51.00
26954;DHT22;14508;50.924;11.600;2022-09-24T14:58:58;20.90;50.60
26954;DHT22;14508;50.924;11.600;2022-09-24T15:01:29;20.90;50.30
26954;DHT22;14508;50.924;11.600;2022-09-24T15:03:58;20.80;50.20
26954;DHT22;14508;50.924;11.600;2022-09-24T15:06:27;20.70;50.40
26954;DHT22;14508;50.924;11.600;2022-09-24T15:08:58;20.50;50.50
26954;DHT22;14508;50.924;11.600;2022-09-24T15:11:26;20.40;50.90
26954;DHT22;14508;50.924;11.600;2022-09-24T15:14:00;20.30;51.10
26954;DHT22;14508;50.924;11.600;2022-09-24T15:16:29;20.20;51.20
26954;DHT22;14508;50.924;11.600;2022-09-24T15:19:08;20.00;51.60
26954;DHT22;14508;50.924;11.600;2022-09-24T15:21:38;20.00;51.70
26954;DHT22;14508;50.924;11.600;2022-09-24T15:24:04;19.80;51.80
26954;DHT22;14508;50.924;11.600;2022-09-24T15:26:33;19.70;52.00
26954;DHT22;14508;50.924;11.600;2022-09-24T15:29:01;19.70;52.40
26954;DHT22;14508;50.924;11.600;2022-09-24T15:31:29;19.70;52.90
26954;DHT22;14508;50.924;11.600;2022-09-24T15:33:55;19.60;53.20
26954;DHT22;14508;50.924;11.600;2022-09-24T15:36:22;19.50;53.20
26954;DHT22;14508;50.924;11.600;2022-09-24T15:38:50;19.50;54.00
26954;DHT22;14508;50.924;11.600;2022-09-24T15:41:18;19.40;53.90
26954;DHT22;14508;50.924;11.600;2022-09-24T15:43:45;19.40;54.30
26954;DHT22;14508;50.924;11.600;2022-09-24T15:46:13;19.30;55.10
26954;DHT22;14508;50.924;11.600;2022-09-24T15:48:40;19.30;55.90